San Diego, California
Traffic Map
Current Weather Conditions
San Diego, California
Broken Clouds
Broken Clouds
68°
Feels Like: 68°
Wind Chill: 68° Ceiling: 800
Heat Index: 68° Visibility: 8mi
Dew Point: 67° Wind: 3mph
Humidity: 96% Direction: 30° (NNE)
Pressure: 29.91in Gusts: 0mph
Raw Report DataKSAN 261351Z 03003KT 8SM BKN008 BKN180 20/19 A2991 RMK AO2 SLP128 T02000194
Traffic Incident Summary
Active as of:
Severity:
Category:
InformationThere was an issue retrieving the traffic information for this location. Please try a different location or try again shortly.
Advertisements
Track Severe Weather on mobile